sensor_id;sensor_type;location;lat;lon;timestamp;temperature;humidity
11615;DHT22;5863;52.832;4.758;2022-11-15T00:02:20;7.90;99.90
11615;DHT22;5863;52.832;4.758;2022-11-15T00:04:47;7.80;99.90
11615;DHT22;5863;52.832;4.758;2022-11-15T00:07:13;7.80;99.90
11615;DHT22;5863;52.832;4.758;2022-11-15T00:09:40;7.90;99.90
11615;DHT22;5863;52.832;4.758;2022-11-15T00:12:08;7.80;99.90
11615;DHT22;5863;52.832;4.758;2022-11-15T00:14:35;7.80;99.90
11615;DHT22;5863;52.832;4.758;2022-11-15T00:17:01;7.70;99.90
11615;DHT22;5863;52.832;4.758;2022-11-15T00:19:28;7.70;99.90
11615;DHT22;5863;52.832;4.758;2022-11-15T00:21:55;7.60;99.90
11615;DHT22;5863;52.832;4.758;2022-11-15T00:24:21;7.70;99.90
11615;DHT22;5863;52.832;4.758;2022-11-15T00:26:48;7.80;99.90
11615;DHT22;5863;52.832;4.758;2022-11-15T00:29:16;7.80;99.90
11615;DHT22;5863;52.832;4.758;2022-11-15T00:31:43;7.70;99.90
11615;DHT22;5863;52.832;4.758;2022-11-15T00:34:10;7.80;99.90
11615;DHT22;5863;52.832;4.758;2022-11-15T00:36:36;7.80;99.90
11615;DHT22;5863;52.832;4.758;2022-11-15T00:39:03;7.80;99.90
11615;DHT22;5863;52.832;4.758;2022-11-15T00:41:31;7.70;99.90
11615;DHT22;5863;52.832;4.758;2022-11-15T00:43:57;7.80;99.90
11615;DHT22;5863;52.832;4.758;2022-11-15T00:46:26;7.80;99.90
11615;DHT22;5863;52.832;4.758;2022-11-15T00:48:53;7.70;99.90
11615;DHT22;5863;52.832;4.758;2022-11-15T00:51:20;7.70;99.90
11615;DHT22;5863;52.832;4.758;2022-11-15T00:53:46;7.70;99.90
11615;DHT22;5863;52.832;4.758;2022-11-15T00:56:13;7.70;99.90
11615;DHT22;5863;52.832;4.758;2022-11-15T00:58:40;7.60;99.90
11615;DHT22;5863;52.832;4.758;2022-11-15T01:01:08;7.60;99.90
11615;DHT22;5863;52.832;4.758;2022-11-15T01:03:36;7.70;99.90
11615;DHT22;5863;52.832;4.758;2022-11-15T01:06:04;7.60;99.90
11615;DHT22;5863;52.832;4.758;2022-11-15T01:08:30;7.70;99.90
11615;DHT22;5863;52.832;4.758;2022-11-15T01:11:00;7.70;99.90
11615;DHT22;5863;52.832;4.758;2022-11-15T01:13:30;7.70;99.90
11615;DHT22;5863;52.832;4.758;2022-11-15T01:15:56;7.80;99.90
11615;DHT22;5863;52.832;4.758;2022-11-15T01:18:23;7.80;99.90
11615;DHT22;5863;52.832;4.758;2022-11-15T01:20:51;7.80;99.90
11615;DHT22;5863;52.832;4.758;2022-11-15T01:23:18;7.80;99.90
11615;DHT22;5863;52.832;4.758;2022-11-15T01:25:45;7.80;99.90
11615;DHT22;5863;52.832;4.758;2022-11-15T01:28:12;7.80;99.90
11615;DHT22;5863;52.832;4.758;2022-11-15T01:30:38;7.80;99.90
11615;DHT22;5863;52.832;4.758;2022-11-15T01:33:05;7.80;99.90
11615;DHT22;5863;52.832;4.758;2022-11-15T01:35:32;7.80;99.90
11615;DHT22;5863;52.832;4.758;2022-11-15T01:38:00;7.90;99.90
11615;DHT22;5863;52.832;4.758;2022-11-15T01:40:27;7.90;99.90
11615;DHT22;5863;52.832;4.758;2022-11-15T01:42:53;7.80;99.90
11615;DHT22;5863;52.832;4.758;2022-11-15T01:45:20;7.80;99.90
11615;DHT22;5863;52.832;4.758;2022-11-15T01:47:50;7.90;99.90
11615;DHT22;5863;52.832;4.758;2022-11-15T01:50:20;7.90;99.90
11615;DHT22;5863;52.832;4.758;2022-11-15T01:52:48;7.90;99.90
11615;DHT22;5863;52.832;4.758;2022-11-15T01:55:20;7.90;99.90
11615;DHT22;5863;52.832;4.758;2022-11-15T01:57:53;8.00;99.90
11615;DHT22;5863;52.832;4.758;2022-11-15T02:00:21;7.90;99.90
11615;DHT22;5863;52.832;4.758;2022-11-15T02:02:48;7.90;99.90
11615;DHT22;5863;52.832;4.758;2022-11-15T02:05:15;7.90;99.90
11615;DHT22;5863;52.832;4.758;2022-11-15T02:07:42;8.00;99.90
11615;DHT22;5863;52.832;4.758;2022-11-15T02:10:10;8.00;99.90
11615;DHT22;5863;52.832;4.758;2022-11-15T02:12:39;8.00;99.90
11615;DHT22;5863;52.832;4.758;2022-11-15T02:15:08;8.00;99.90
11615;DHT22;5863;52.832;4.758;2022-11-15T02:17:56;8.00;99.90
11615;DHT22;5863;52.832;4.758;2022-11-15T02:20:46;8.00;99.90
11615;DHT22;5863;52.832;4.758;2022-11-15T02:23:44;8.00;99.90
11615;DHT22;5863;52.832;4.758;2022-11-15T02:26:40;8.00;99.90
11615;DHT22;5863;52.832;4.758;2022-11-15T02:29:18;8.00;99.90
11615;DHT22;5863;52.832;4.758;2022-11-15T02:31:53;8.00;99.90
11615;DHT22;5863;52.832;4.758;2022-11-15T02:34:28;8.00;99.90
11615;DHT22;5863;52.832;4.758;2022-11-15T02:37:03;8.00;99.90
11615;DHT22;5863;52.832;4.758;2022-11-15T02:39:39;8.00;99.90
11615;DHT22;5863;52.832;4.758;2022-11-15T02:42:11;8.10;99.90
11615;DHT22;5863;52.832;4.758;2022-11-15T02:44:56;8.00;99.90
11615;DHT22;5863;52.832;4.758;2022-11-15T02:47:27;8.00;99.90
11615;DHT22;5863;52.832;4.758;2022-11-15T02:49:58;8.00;99.90
11615;DHT22;5863;52.832;4.758;2022-11-15T02:52:26;8.00;99.90
11615;DHT22;5863;52.832;4.758;2022-11-15T02:54:54;8.00;99.90
11615;DHT22;5863;52.832;4.758;2022-11-15T02:57:35;8.10;99.90
11615;DHT22;5863;52.832;4.758;2022-11-15T03:00:06;8.10;99.90
11615;DHT22;5863;52.832;4.758;2022-11-15T03:02:56;8.10;99.90
11615;DHT22;5863;52.832;4.758;2022-11-15T03:05:34;8.10;99.90
11615;DHT22;5863;52.832;4.758;2022-11-15T03:08:06;8.10;99.90
11615;DHT22;5863;52.832;4.758;2022-11-15T03:10:42;8.10;99.90
11615;DHT22;5863;52.832;4.758;2022-11-15T03:13:18;8.20;99.90
11615;DHT22;5863;52.832;4.758;2022-11-15T03:15:53;8.20;99.90
11615;DHT22;5863;52.832;4.758;2022-11-15T03:18:29;8.20;99.90
11615;DHT22;5863;52.832;4.758;2022-11-15T03:20:58;8.20;99.90
11615;DHT22;5863;52.832;4.758;2022-11-15T03:23:26;8.30;99.90
11615;DHT22;5863;52.832;4.758;2022-11-15T03:25:56;8.30;99.90
11615;DHT22;5863;52.832;4.758;2022-11-15T03:28:29;8.30;99.90
11615;DHT22;5863;52.832;4.758;2022-11-15T03:31:01;8.30;99.90
11615;DHT22;5863;52.832;4.758;2022-11-15T03:33:51;8.30;99.90
11615;DHT22;5863;52.832;4.758;2022-11-15T03:36:22;8.40;99.90
11615;DHT22;5863;52.832;4.758;2022-11-15T03:38:53;8.40;99.90
11615;DHT22;5863;52.832;4.758;2022-11-15T03:41:24;8.40;99.90
11615;DHT22;5863;52.832;4.758;2022-11-15T03:43:56;8.40;99.90
11615;DHT22;5863;52.832;4.758;2022-11-15T03:46:27;8.40;99.90
11615;DHT22;5863;52.832;4.758;2022-11-15T03:49:01;8.40;99.90
11615;DHT22;5863;52.832;4.758;2022-11-15T03:51:30;8.50;99.90
11615;DHT22;5863;52.832;4.758;2022-11-15T03:53:56;8.50;99.90
11615;DHT22;5863;52.832;4.758;2022-11-15T03:56:23;8.50;99.90
11615;DHT22;5863;52.832;4.758;2022-11-15T03:58:50;8.50;99.90
11615;DHT22;5863;52.832;4.758;2022-11-15T04:01:17;8.50;99.90
11615;DHT22;5863;52.832;4.758;2022-11-15T04:03:43;8.60;99.90
11615;DHT22;5863;52.832;4.758;2022-11-15T04:06:11;8.60;99.90
11615;DHT22;5863;52.832;4.758;2022-11-15T04:08:38;8.70;99.90
11615;DHT22;5863;52.832;4.758;2022-11-15T04:11:05;8.80;99.90
11615;DHT22;5863;52.832;4.758;2022-11-15T04:13:31;8.60;99.90
11615;DHT22;5863;52.832;4.758;2022-11-15T04:15:58;8.70;99.90
11615;DHT22;5863;52.832;4.758;2022-11-15T04:18:25;8.70;99.90
11615;DHT22;5863;52.832;4.758;2022-11-15T04:20:52;8.70;99.90
11615;DHT22;5863;52.832;4.758;2022-11-15T04:23:37;8.80;99.90
11615;DHT22;5863;52.832;4.758;2022-11-15T04:26:27;8.80;99.90
11615;DHT22;5863;52.832;4.758;2022-11-15T04:28:54;8.80;99.90
11615;DHT22;5863;52.832;4.758;2022-11-15T04:31:38;8.80;99.90
11615;DHT22;5863;52.832;4.758;2022-11-15T04:34:05;8.80;99.90
11615;DHT22;5863;52.832;4.758;2022-11-15T04:36:32;8.80;99.90
11615;DHT22;5863;52.832;4.758;2022-11-15T04:39:17;8.80;99.90
11615;DHT22;5863;52.832;4.758;2022-11-15T04:41:44;8.90;99.90
11615;DHT22;5863;52.832;4.758;2022-11-15T04:44:10;8.90;99.90
11615;DHT22;5863;52.832;4.758;2022-11-15T04:46:37;8.90;99.90
11615;DHT22;5863;52.832;4.758;2022-11-15T04:49:04;8.90;99.90
11615;DHT22;5863;52.832;4.758;2022-11-15T04:51:30;9.00;99.90
11615;DHT22;5863;52.832;4.758;2022-11-15T04:53:57;9.00;99.90
11615;DHT22;5863;52.832;4.758;2022-11-15T04:56:25;9.10;99.90
11615;DHT22;5863;52.832;4.758;2022-11-15T04:58:52;9.00;99.90
11615;DHT22;5863;52.832;4.758;2022-11-15T05:01:18;9.10;99.90
11615;DHT22;5863;52.832;4.758;2022-11-15T05:03:45;9.10;99.90
11615;DHT22;5863;52.832;4.758;2022-11-15T05:06:29;9.10;99.90
11615;DHT22;5863;52.832;4.758;2022-11-15T05:08:56;9.20;99.90
11615;DHT22;5863;52.832;4.758;2022-11-15T05:11:25;9.20;99.90
11615;DHT22;5863;52.832;4.758;2022-11-15T05:13:52;9.20;99.90
11615;DHT22;5863;52.832;4.758;2022-11-15T05:16:19;9.30;99.90
11615;DHT22;5863;52.832;4.758;2022-11-15T05:18:46;9.30;99.90
11615;DHT22;5863;52.832;4.758;2022-11-15T05:21:14;9.30;99.90
11615;DHT22;5863;52.832;4.758;2022-11-15T05:23:41;9.40;99.90
11615;DHT22;5863;52.832;4.758;2022-11-15T05:26:09;9.40;99.90
11615;DHT22;5863;52.832;4.758;2022-11-15T05:28:37;9.40;99.90
11615;DHT22;5863;52.832;4.758;2022-11-15T05:31:05;9.50;99.90
11615;DHT22;5863;52.832;4.758;2022-11-15T05:33:33;9.50;99.90
11615;DHT22;5863;52.832;4.758;2022-11-15T05:36:04;9.50;99.90
11615;DHT22;5863;52.832;4.758;2022-11-15T05:38:31;9.60;99.90
11615;DHT22;5863;52.832;4.758;2022-11-15T05:40:59;9.70;99.90
11615;DHT22;5863;52.832;4.758;2022-11-15T05:43:27;9.70;99.90
11615;DHT22;5863;52.832;4.758;2022-11-15T05:45:56;9.80;99.90
11615;DHT22;5863;52.832;4.758;2022-11-15T05:48:24;9.80;99.90
11615;DHT22;5863;52.832;4.758;2022-11-15T05:50:51;9.80;99.90
11615;DHT22;5863;52.832;4.758;2022-11-15T05:53:19;9.90;99.90
11615;DHT22;5863;52.832;4.758;2022-11-15T05:55:48;9.90;99.90
11615;DHT22;5863;52.832;4.758;2022-11-15T05:58:15;9.90;99.90
11615;DHT22;5863;52.832;4.758;2022-11-15T06:00:42;10.00;99.90
11615;DHT22;5863;52.832;4.758;2022-11-15T06:03:10;10.10;99.90
11615;DHT22;5863;52.832;4.758;2022-11-15T06:05:39;10.10;99.90
11615;DHT22;5863;52.832;4.758;2022-11-15T06:08:06;10.10;99.90
11615;DHT22;5863;52.832;4.758;2022-11-15T06:10:32;10.20;99.90
11615;DHT22;5863;52.832;4.758;2022-11-15T06:13:00;10.20;99.90
11615;DHT22;5863;52.832;4.758;2022-11-15T06:15:28;10.30;99.90
11615;DHT22;5863;52.832;4.758;2022-11-15T06:17:56;10.30;99.90
11615;DHT22;5863;52.832;4.758;2022-11-15T06:20:25;10.30;99.90
11615;DHT22;5863;52.832;4.758;2022-11-15T06:22:56;10.40;99.90
11615;DHT22;5863;52.832;4.758;2022-11-15T06:25:23;10.40;99.90
11615;DHT22;5863;52.832;4.758;2022-11-15T06:27:51;10.40;99.90
11615;DHT22;5863;52.832;4.758;2022-11-15T06:30:18;10.50;99.90
11615;DHT22;5863;52.832;4.758;2022-11-15T06:32:44;10.50;99.90
11615;DHT22;5863;52.832;4.758;2022-11-15T06:35:11;10.50;99.90
11615;DHT22;5863;52.832;4.758;2022-11-15T06:37:39;10.60;99.90
11615;DHT22;5863;52.832;4.758;2022-11-15T06:40:07;10.70;99.90
11615;DHT22;5863;52.832;4.758;2022-11-15T06:42:34;10.70;99.90
11615;DHT22;5863;52.832;4.758;2022-11-15T06:45:02;10.80;99.90
11615;DHT22;5863;52.832;4.758;2022-11-15T06:47:29;10.80;99.90
11615;DHT22;5863;52.832;4.758;2022-11-15T06:49:55;10.90;99.90
11615;DHT22;5863;52.832;4.758;2022-11-15T06:52:22;10.90;99.90
11615;DHT22;5863;52.832;4.758;2022-11-15T06:54:50;10.80;99.90
11615;DHT22;5863;52.832;4.758;2022-11-15T06:57:17;10.80;99.90
11615;DHT22;5863;52.832;4.758;2022-11-15T06:59:43;10.80;99.90
11615;DHT22;5863;52.832;4.758;2022-11-15T07:02:12;10.80;99.90
11615;DHT22;5863;52.832;4.758;2022-11-15T07:04:39;10.90;99.90
11615;DHT22;5863;52.832;4.758;2022-11-15T07:07:06;10.90;99.90
11615;DHT22;5863;52.832;4.758;2022-11-15T07:09:33;10.90;99.90
11615;DHT22;5863;52.832;4.758;2022-11-15T07:12:01;10.90;99.90
11615;DHT22;5863;52.832;4.758;2022-11-15T07:14:28;10.90;99.90
11615;DHT22;5863;52.832;4.758;2022-11-15T07:16:54;10.90;99.90
11615;DHT22;5863;52.832;4.758;2022-11-15T07:19:21;10.90;99.90
11615;DHT22;5863;52.832;4.758;2022-11-15T07:21:48;10.90;99.90
11615;DHT22;5863;52.832;4.758;2022-11-15T07:24:14;10.90;99.90
11615;DHT22;5863;52.832;4.758;2022-11-15T07:26:41;10.90;99.90
11615;DHT22;5863;52.832;4.758;2022-11-15T07:29:09;10.80;99.90
11615;DHT22;5863;52.832;4.758;2022-11-15T07:31:36;10.80;99.90
11615;DHT22;5863;52.832;4.758;2022-11-15T07:34:04;10.70;99.90
11615;DHT22;5863;52.832;4.758;2022-11-15T07:36:31;10.90;99.90
11615;DHT22;5863;52.832;4.758;2022-11-15T07:38:57;10.90;99.90
11615;DHT22;5863;52.832;4.758;2022-11-15T07:41:24;10.80;99.90
11615;DHT22;5863;52.832;4.758;2022-11-15T07:43:51;10.80;99.90
11615;DHT22;5863;52.832;4.758;2022-11-15T07:46:19;10.80;99.90
11615;DHT22;5863;52.832;4.758;2022-11-15T07:48:46;10.80;99.90
11615;DHT22;5863;52.832;4.758;2022-11-15T07:51:13;10.90;99.90
11615;DHT22;5863;52.832;4.758;2022-11-15T07:53:40;10.90;99.90
11615;DHT22;5863;52.832;4.758;2022-11-15T07:56:07;10.90;99.90
11615;DHT22;5863;52.832;4.758;2022-11-15T07:58:34;10.90;99.90
11615;DHT22;5863;52.832;4.758;2022-11-15T08:01:02;10.90;99.90
11615;DHT22;5863;52.832;4.758;2022-11-15T08:03:31;11.00;99.90
11615;DHT22;5863;52.832;4.758;2022-11-15T08:05:59;11.00;99.90
11615;DHT22;5863;52.832;4.758;2022-11-15T08:08:26;11.00;99.90
11615;DHT22;5863;52.832;4.758;2022-11-15T08:10:53;10.90;99.90
11615;DHT22;5863;52.832;4.758;2022-11-15T08:13:20;10.90;99.90
11615;DHT22;5863;52.832;4.758;2022-11-15T08:15:47;10.90;99.90
11615;DHT22;5863;52.832;4.758;2022-11-15T08:18:15;10.90;99.90
11615;DHT22;5863;52.832;4.758;2022-11-15T08:20:44;10.80;99.90
11615;DHT22;5863;52.832;4.758;2022-11-15T08:23:11;10.90;99.90
11615;DHT22;5863;52.832;4.758;2022-11-15T08:25:38;11.00;99.90
11615;DHT22;5863;52.832;4.758;2022-11-15T08:28:07;11.00;99.90
11615;DHT22;5863;52.832;4.758;2022-11-15T08:30:37;11.00;99.90
11615;DHT22;5863;52.832;4.758;2022-11-15T08:33:10;11.00;99.90
11615;DHT22;5863;52.832;4.758;2022-11-15T08:35:38;11.00;99.90
11615;DHT22;5863;52.832;4.758;2022-11-15T08:38:07;11.20;99.90
11615;DHT22;5863;52.832;4.758;2022-11-15T08:40:33;11.20;99.90
11615;DHT22;5863;52.832;4.758;2022-11-15T08:43:01;11.30;99.90
11615;DHT22;5863;52.832;4.758;2022-11-15T08:45:28;11.40;99.90
11615;DHT22;5863;52.832;4.758;2022-11-15T08:47:55;11.50;99.90
11615;DHT22;5863;52.832;4.758;2022-11-15T08:50:21;11.50;99.90
11615;DHT22;5863;52.832;4.758;2022-11-15T08:52:49;11.60;99.90
11615;DHT22;5863;52.832;4.758;2022-11-15T08:55:17;11.60;99.90
11615;DHT22;5863;52.832;4.758;2022-11-15T08:57:43;11.60;99.90
11615;DHT22;5863;52.832;4.758;2022-11-15T09:00:11;11.60;99.90
11615;DHT22;5863;52.832;4.758;2022-11-15T09:02:39;11.60;99.90
11615;DHT22;5863;52.832;4.758;2022-11-15T09:05:06;11.70;99.90
11615;DHT22;5863;52.832;4.758;2022-11-15T09:07:33;11.60;99.90
11615;DHT22;5863;52.832;4.758;2022-11-15T09:10:01;11.70;99.90
11615;DHT22;5863;52.832;4.758;2022-11-15T09:12:29;11.70;99.90
11615;DHT22;5863;52.832;4.758;2022-11-15T09:14:55;11.70;99.90
11615;DHT22;5863;52.832;4.758;2022-11-15T09:17:22;11.60;99.90
11615;DHT22;5863;52.832;4.758;2022-11-15T09:19:49;11.70;99.90
11615;DHT22;5863;52.832;4.758;2022-11-15T09:22:15;11.70;99.90
11615;DHT22;5863;52.832;4.758;2022-11-15T09:24:42;11.70;99.90
11615;DHT22;5863;52.832;4.758;2022-11-15T09:27:09;11.80;99.90
11615;DHT22;5863;52.832;4.758;2022-11-15T09:29:37;11.80;99.90
11615;DHT22;5863;52.832;4.758;2022-11-15T09:32:04;11.80;99.90
11615;DHT22;5863;52.832;4.758;2022-11-15T09:34:30;11.80;99.90
11615;DHT22;5863;52.832;4.758;2022-11-15T09:36:57;11.80;99.90
11615;DHT22;5863;52.832;4.758;2022-11-15T09:39:24;11.80;99.90
11615;DHT22;5863;52.832;4.758;2022-11-15T09:41:58;11.90;99.90
11615;DHT22;5863;52.832;4.758;2022-11-15T09:44:38;11.90;99.90
11615;DHT22;5863;52.832;4.758;2022-11-15T09:47:24;11.90;99.90
11615;DHT22;5863;52.832;4.758;2022-11-15T09:49:54;11.90;99.90
11615;DHT22;5863;52.832;4.758;2022-11-15T09:52:21;11.90;99.90
11615;DHT22;5863;52.832;4.758;2022-11-15T09:54:49;11.90;99.90
11615;DHT22;5863;52.832;4.758;2022-11-15T09:57:31;11.90;99.90
11615;DHT22;5863;52.832;4.758;2022-11-15T10:00:08;11.90;99.90
11615;DHT22;5863;52.832;4.758;2022-11-15T10:02:46;12.00;99.90
11615;DHT22;5863;52.832;4.758;2022-11-15T10:05:18;12.00;99.90
11615;DHT22;5863;52.832;4.758;2022-11-15T10:07:50;12.10;99.90
11615;DHT22;5863;52.832;4.758;2022-11-15T10:10:25;12.20;99.90
11615;DHT22;5863;52.832;4.758;2022-11-15T10:12:52;12.30;99.90
11615;DHT22;5863;52.832;4.758;2022-11-15T10:15:21;12.40;99.90
11615;DHT22;5863;52.832;4.758;2022-11-15T10:18:13;12.50;99.90
11615;DHT22;5863;52.832;4.758;2022-11-15T10:20:48;12.60;99.90
11615;DHT22;5863;52.832;4.758;2022-11-15T10:23:17;12.70;99.90
11615;DHT22;5863;52.832;4.758;2022-11-15T10:25:44;12.70;99.90
11615;DHT22;5863;52.832;4.758;2022-11-15T10:28:15;12.80;99.90
11615;DHT22;5863;52.832;4.758;2022-11-15T10:30:45;12.80;99.90
11615;DHT22;5863;52.832;4.758;2022-11-15T10:33:26;12.90;99.90
11615;DHT22;5863;52.832;4.758;2022-11-15T10:36:14;13.00;99.90
11615;DHT22;5863;52.832;4.758;2022-11-15T10:38:52;13.00;99.90
11615;DHT22;5863;52.832;4.758;2022-11-15T10:41:21;13.10;99.90
11615;DHT22;5863;52.832;4.758;2022-11-15T10:44:17;13.10;99.90
11615;DHT22;5863;52.832;4.758;2022-11-15T10:46:47;13.20;99.90
11615;DHT22;5863;52.832;4.758;2022-11-15T10:49:17;13.30;99.90
11615;DHT22;5863;52.832;4.758;2022-11-15T10:51:46;13.30;99.90
11615;DHT22;5863;52.832;4.758;2022-11-15T10:54:17;13.40;99.90
11615;DHT22;5863;52.832;4.758;2022-11-15T10:56:48;13.40;99.90
11615;DHT22;5863;52.832;4.758;2022-11-15T10:59:24;13.40;99.90
11615;DHT22;5863;52.832;4.758;2022-11-15T11:01:54;13.40;99.90
11615;DHT22;5863;52.832;4.758;2022-11-15T11:04:21;13.50;99.90
11615;DHT22;5863;52.832;4.758;2022-11-15T11:06:49;13.50;99.90
11615;DHT22;5863;52.832;4.758;2022-11-15T11:09:28;13.60;99.90
11615;DHT22;5863;52.832;4.758;2022-11-15T11:11:57;13.60;99.90
11615;DHT22;5863;52.832;4.758;2022-11-15T11:14:25;13.70;99.90
11615;DHT22;5863;52.832;4.758;2022-11-15T11:16:56;13.70;99.90
11615;DHT22;5863;52.832;4.758;2022-11-15T11:19:46;13.70;99.90
11615;DHT22;5863;52.832;4.758;2022-11-15T11:22:24;13.70;99.90
11615;DHT22;5863;52.832;4.758;2022-11-15T11:25:02;13.70;99.90
11615;DHT22;5863;52.832;4.758;2022-11-15T11:27:39;13.70;99.90
11615;DHT22;5863;52.832;4.758;2022-11-15T11:30:12;13.60;99.90
11615;DHT22;5863;52.832;4.758;2022-11-15T11:32:59;13.60;99.90
11615;DHT22;5863;52.832;4.758;2022-11-15T11:35:32;13.60;99.90
11615;DHT22;5863;52.832;4.758;2022-11-15T11:38:15;13.60;99.90
11615;DHT22;5863;52.832;4.758;2022-11-15T11:40:51;13.60;99.90
11615;DHT22;5863;52.832;4.758;2022-11-15T11:43:30;13.60;99.90
11615;DHT22;5863;52.832;4.758;2022-11-15T11:46:14;13.60;99.90
11615;DHT22;5863;52.832;4.758;2022-11-15T11:48:48;13.60;99.90
11615;DHT22;5863;52.832;4.758;2022-11-15T11:51:21;13.50;99.90
11615;DHT22;5863;52.832;4.758;2022-11-15T11:53:53;13.50;99.90
11615;DHT22;5863;52.832;4.758;2022-11-15T11:56:25;13.40;99.90
11615;DHT22;5863;52.832;4.758;2022-11-15T11:58:54;13.40;99.90
11615;DHT22;5863;52.832;4.758;2022-11-15T12:01:23;13.40;99.90
11615;DHT22;5863;52.832;4.758;2022-11-15T12:03:55;13.40;99.90
11615;DHT22;5863;52.832;4.758;2022-11-15T12:06:30;13.30;99.90
11615;DHT22;5863;52.832;4.758;2022-11-15T12:09:01;13.30;99.90
11615;DHT22;5863;52.832;4.758;2022-11-15T12:11:34;13.20;99.90
11615;DHT22;5863;52.832;4.758;2022-11-15T12:14:05;13.30;99.90
11615;DHT22;5863;52.832;4.758;2022-11-15T12:16:35;13.30;99.90
11615;DHT22;5863;52.832;4.758;2022-11-15T12:19:04;13.30;99.90
11615;DHT22;5863;52.832;4.758;2022-11-15T12:21:36;13.30;99.90
11615;DHT22;5863;52.832;4.758;2022-11-15T12:24:08;13.30;99.90
11615;DHT22;5863;52.832;4.758;2022-11-15T12:26:41;13.30;99.90
11615;DHT22;5863;52.832;4.758;2022-11-15T12:29:15;13.30;99.90
11615;DHT22;5863;52.832;4.758;2022-11-15T12:31:45;13.40;99.90
11615;DHT22;5863;52.832;4.758;2022-11-15T12:34:34;13.40;99.90
11615;DHT22;5863;52.832;4.758;2022-11-15T12:37:02;13.50;99.90
11615;DHT22;5863;52.832;4.758;2022-11-15T12:40:17;13.50;99.90
11615;DHT22;5863;52.832;4.758;2022-11-15T12:43:04;13.50;99.90
11615;DHT22;5863;52.832;4.758;2022-11-15T12:45:33;13.50;99.90
11615;DHT22;5863;52.832;4.758;2022-11-15T12:51:14;13.60;99.90
11615;DHT22;5863;52.832;4.758;2022-11-15T12:53:40;13.70;99.90
11615;DHT22;5863;52.832;4.758;2022-11-15T12:56:20;13.70;99.90
11615;DHT22;5863;52.832;4.758;2022-11-15T12:58:48;13.70;99.90
11615;DHT22;5863;52.832;4.758;2022-11-15T13:04:29;13.60;99.90
11615;DHT22;5863;52.832;4.758;2022-11-15T13:07:01;13.60;99.90
11615;DHT22;5863;52.832;4.758;2022-11-15T13:09:51;13.60;99.90
11615;DHT22;5863;52.832;4.758;2022-11-15T13:15:37;13.50;99.90
11615;DHT22;5863;52.832;4.758;2022-11-15T13:18:27;13.50;99.90
11615;DHT22;5863;52.832;4.758;2022-11-15T13:20:55;13.50;99.90
11615;DHT22;5863;52.832;4.758;2022-11-15T13:23:23;13.40;99.90
11615;DHT22;5863;52.832;4.758;2022-11-15T13:28:43;13.40;99.90
11615;DHT22;5863;52.832;4.758;2022-11-15T13:31:29;13.30;99.90
11615;DHT22;5863;52.832;4.758;2022-11-15T13:33:59;13.30;99.90
11615;DHT22;5863;52.832;4.758;2022-11-15T13:36:29;13.30;99.90
11615;DHT22;5863;52.832;4.758;2022-11-15T13:39:01;13.20;99.90
11615;DHT22;5863;52.832;4.758;2022-11-15T13:41:30;13.20;99.90
11615;DHT22;5863;52.832;4.758;2022-11-15T13:43:59;13.20;99.90
11615;DHT22;5863;52.832;4.758;2022-11-15T13:46:27;13.20;99.90
11615;DHT22;5863;52.832;4.758;2022-11-15T13:48:56;13.20;99.90
11615;DHT22;5863;52.832;4.758;2022-11-15T13:51:29;13.20;99.90
11615;DHT22;5863;52.832;4.758;2022-11-15T13:54:01;13.10;99.90
11615;DHT22;5863;52.832;4.758;2022-11-15T13:56:29;13.10;99.90
11615;DHT22;5863;52.832;4.758;2022-11-15T13:58:57;13.10;99.90
11615;DHT22;5863;52.832;4.758;2022-11-15T14:01:27;13.00;99.90
11615;DHT22;5863;52.832;4.758;2022-11-15T14:03:58;13.00;99.90
11615;DHT22;5863;52.832;4.758;2022-11-15T14:06:26;12.90;99.90
11615;DHT22;5863;52.832;4.758;2022-11-15T14:09:24;12.90;99.90
11615;DHT22;5863;52.832;4.758;2022-11-15T14:11:53;12.80;99.90
11615;DHT22;5863;52.832;4.758;2022-11-15T14:14:22;12.80;99.90
11615;DHT22;5863;52.832;4.758;2022-11-15T14:16:51;12.80;99.90
11615;DHT22;5863;52.832;4.758;2022-11-15T14:19:36;12.80;99.90
11615;DHT22;5863;52.832;4.758;2022-11-15T14:22:15;12.80;99.90
11615;DHT22;5863;52.832;4.758;2022-11-15T14:24:46;12.80;99.90
11615;DHT22;5863;52.832;4.758;2022-11-15T14:27:21;12.70;99.90
11615;DHT22;5863;52.832;4.758;2022-11-15T14:29:48;12.70;99.90
11615;DHT22;5863;52.832;4.758;2022-11-15T14:32:16;12.70;99.90
11615;DHT22;5863;52.832;4.758;2022-11-15T14:34:44;12.60;99.90
11615;DHT22;5863;52.832;4.758;2022-11-15T14:37:19;12.60;99.90
11615;DHT22;5863;52.832;4.758;2022-11-15T14:39:47;12.60;99.90
11615;DHT22;5863;52.832;4.758;2022-11-15T14:42:14;12.50;99.90
11615;DHT22;5863;52.832;4.758;2022-11-15T14:44:41;12.50;99.90
11615;DHT22;5863;52.832;4.758;2022-11-15T14:47:08;12.40;99.90
11615;DHT22;5863;52.832;4.758;2022-11-15T14:49:34;12.40;99.90
11615;DHT22;5863;52.832;4.758;2022-11-15T14:52:01;12.30;99.90
11615;DHT22;5863;52.832;4.758;2022-11-15T14:54:28;12.30;99.90
11615;DHT22;5863;52.832;4.758;2022-11-15T14:56:56;12.30;99.90
11615;DHT22;5863;52.832;4.758;2022-11-15T14:59:23;12.20;99.90
11615;DHT22;5863;52.832;4.758;2022-11-15T15:01:50;12.20;99.90
11615;DHT22;5863;52.832;4.758;2022-11-15T15:04:16;12.20;99.90
11615;DHT22;5863;52.832;4.758;2022-11-15T15:06:43;12.20;99.90
11615;DHT22;5863;52.832;4.758;2022-11-15T15:09:09;12.20;99.90
11615;DHT22;5863;52.832;4.758;2022-11-15T15:11:36;12.10;99.90
11615;DHT22;5863;52.832;4.758;2022-11-15T15:14:04;12.10;99.90
11615;DHT22;5863;52.832;4.758;2022-11-15T15:16:31;12.10;99.90
11615;DHT22;5863;52.832;4.758;2022-11-15T15:18:58;12.10;99.90
11615;DHT22;5863;52.832;4.758;2022-11-15T15:21:26;12.10;99.90
11615;DHT22;5863;52.832;4.758;2022-11-15T15:23:53;12.10;99.90
11615;DHT22;5863;52.832;4.758;2022-11-15T15:26:20;12.10;99.90
11615;DHT22;5863;52.832;4.758;2022-11-15T15:28:48;12.10;99.90
11615;DHT22;5863;52.832;4.758;2022-11-15T15:31:18;12.10;99.90
11615;DHT22;5863;52.832;4.758;2022-11-15T15:33:44;12.00;99.90
11615;DHT22;5863;52.832;4.758;2022-11-15T15:36:12;11.90;99.90
11615;DHT22;5863;52.832;4.758;2022-11-15T15:38:40;12.00;99.90
11615;DHT22;5863;52.832;4.758;2022-11-15T15:41:10;12.10;99.90
11615;DHT22;5863;52.832;4.758;2022-11-15T15:43:36;12.00;99.90
11615;DHT22;5863;52.832;4.758;2022-11-15T15:46:04;12.00;99.90
11615;DHT22;5863;52.832;4.758;2022-11-15T15:48:32;11.90;99.90
11615;DHT22;5863;52.832;4.758;2022-11-15T15:51:02;11.90;99.90
11615;DHT22;5863;52.832;4.758;2022-11-15T15:53:29;12.00;99.90
11615;DHT22;5863;52.832;4.758;2022-11-15T15:55:56;12.00;99.90
11615;DHT22;5863;52.832;4.758;2022-11-15T15:58:23;12.00;99.90
11615;DHT22;5863;52.832;4.758;2022-11-15T16:00:50;12.00;99.90
11615;DHT22;5863;52.832;4.758;2022-11-15T16:03:17;12.00;99.90
11615;DHT22;5863;52.832;4.758;2022-11-15T16:05:45;12.00;99.90
11615;DHT22;5863;52.832;4.758;2022-11-15T16:08:18;12.00;99.90
11615;DHT22;5863;52.832;4.758;2022-11-15T16:10:45;12.00;99.90
11615;DHT22;5863;52.832;4.758;2022-11-15T16:13:12;11.90;99.90
11615;DHT22;5863;52.832;4.758;2022-11-15T16:15:38;12.00;99.90
11615;DHT22;5863;52.832;4.758;2022-11-15T16:18:06;11.90;99.90
11615;DHT22;5863;52.832;4.758;2022-11-15T16:20:37;12.00;99.90
11615;DHT22;5863;52.832;4.758;2022-11-15T16:23:10;12.00;99.90
11615;DHT22;5863;52.832;4.758;2022-11-15T16:25:40;12.00;99.90